Time;durP1;ratioP1;P1;durP2;ratioP2;P2;SDS_P1;SDS_P2;PMS_P1;PMS_P2;Temp;Humidity;BMP_temperature;BMP_pressure;BME280_temperature;BME280_humidity;BME280_pressure;Samples;Min_cycle;Max_cycle;Signal;HPM_P1;HPM_P2
2022/02/22 00:01:55;;;;;;;14.33;9.48;;;;;;;3.11;100.00;97916.77;1824824;77;21168;-68
2022/02/22 00:04:22;;;;;;;13.05;8.85;;;;;;;3.07;100.00;97917.50;1822888;78;20981;-68
2022/02/22 00:06:48;;;;;;;16.40;11.78;;;;;;;3.05;100.00;97915.08;1828187;77;21013;-70
2022/02/22 00:09:15;;;;;;;13.10;9.78;;;;;;;3.09;100.00;97920.17;1828661;78;20885;-69
2022/02/22 00:11:42;;;;;;;14.80;9.78;;;;;;;3.08;100.00;97915.91;1827666;78;20901;-68
2022/02/22 00:14:11;;;;;;;12.78;9.15;;;;;;;3.04;100.00;97908.19;1827598;77;21198;-70
2022/02/22 00:16:39;;;;;;;15.25;10.58;;;;;;;3.02;100.00;97919.55;1819071;77;20990;-69
2022/02/22 00:19:05;;;;;;;14.95;10.40;;;;;;;2.97;100.00;97908.88;1830692;77;20845;-69
2022/02/22 00:21:32;;;;;;;13.78;10.43;;;;;;;2.90;100.00;97917.53;1820991;78;20872;-70
2022/02/22 00:23:59;;;;;;;14.65;10.85;;;;;;;2.86;100.00;97923.02;1821875;78;20923;-70
2022/02/22 00:26:25;;;;;;;15.23;10.70;;;;;;;2.81;100.00;97922.42;1828490;78;21204;-69
2022/02/22 00:28:53;;;;;;;12.40;10.35;;;;;;;2.80;100.00;97920.83;1827905;78;20928;-69
2022/02/22 00:31:22;;;;;;;13.95;10.75;;;;;;;2.79;100.00;97933.78;1825829;77;28705;-70
2022/02/22 00:33:49;;;;;;;14.95;11.00;;;;;;;2.73;100.00;97930.27;1824196;78;20954;-70
2022/02/22 00:36:16;;;;;;;14.23;10.58;;;;;;;2.68;100.00;97931.52;1828667;78;20880;-68
2022/02/22 00:38:42;;;;;;;16.25;10.68;;;;;;;2.66;100.00;97936.25;1828563;78;21146;-70
2022/02/22 00:41:09;;;;;;;13.62;10.43;;;;;;;2.64;100.00;97937.53;1828459;78;21017;-69
2022/02/22 00:43:36;;;;;;;15.95;11.33;;;;;;;2.60;100.00;97942.53;1826492;78;20892;-69
2022/02/22 00:46:03;;;;;;;18.62;12.95;;;;;;;2.58;100.00;97945.41;1826130;78;20959;-70
2022/02/22 00:48:30;;;;;;;15.80;11.18;;;;;;;2.55;100.00;97939.27;1827198;77;20919;-69
2022/02/22 00:50:58;;;;;;;15.38;12.15;;;;;;;2.53;100.00;97936.59;1827619;78;21156;-70
2022/02/22 00:53:25;;;;;;;17.35;11.88;;;;;;;2.51;100.00;97926.22;1832243;77;21479;-70
2022/02/22 00:55:51;;;;;;;15.28;11.83;;;;;;;2.48;100.00;97924.06;1827246;78;21429;-70
2022/02/22 00:58:18;;;;;;;23.30;14.75;;;;;;;2.49;100.00;97929.63;1827742;77;20919;-70
2022/02/22 01:00:45;;;;;;;20.65;13.78;;;;;;;2.52;100.00;97930.49;1827722;78;20947;-69
2022/02/22 01:03:11;;;;;;;18.42;12.28;;;;;;;2.53;100.00;97920.70;1821497;78;21241;-70
2022/02/22 01:05:38;;;;;;;22.37;13.60;;;;;;;2.53;100.00;97930.77;1827217;78;20939;-69
2022/02/22 01:08:05;;;;;;;18.62;13.50;;;;;;;2.53;100.00;97923.34;1828444;78;20959;-69
2022/02/22 01:10:34;;;;;;;21.85;14.47;;;;;;;2.53;100.00;97916.73;1828541;78;20954;-70
2022/02/22 01:13:00;;;;;;;19.30;13.25;;;;;;;2.55;100.00;97918.09;1828364;78;21540;-70
2022/02/22 01:15:27;;;;;;;17.15;12.70;;;;;;;2.54;100.00;97915.67;1827882;78;21107;-69
2022/02/22 01:17:53;;;;;;;17.27;12.40;;;;;;;2.52;100.00;97916.42;1828536;78;20936;-69
2022/02/22 01:20:20;;;;;;;18.65;12.75;;;;;;;2.46;100.00;97931.45;1827878;78;20904;-70
2022/02/22 01:22:51;;;;;;;16.02;11.93;;;;;;;2.40;100.00;97931.09;1828588;78;20966;-70
2022/02/22 01:25:15;;;;;;;16.57;12.40;;;;;;;2.39;100.00;97930.00;1826785;78;21035;-70
2022/02/22 01:27:42;;;;;;;16.00;12.28;;;;;;;2.38;100.00;97929.20;1828267;78;21161;-70
2022/02/22 01:30:10;;;;;;;21.05;12.55;;;;;;;2.40;100.00;97921.00;1823218;78;20986;-69
2022/02/22 01:32:37;;;;;;;20.15;14.07;;;;;;;2.39;100.00;97918.88;1796499;78;20919;-70
2022/02/22 01:35:07;;;;;;;18.40;13.48;;;;;;;2.40;100.00;97921.83;1828160;78;20971;-70
2022/02/22 01:37:35;;;;;;;15.95;12.50;;;;;;;2.38;100.00;97923.91;1827731;78;20900;-70
2022/02/22 01:40:04;;;;;;;17.50;13.98;;;;;;;2.33;100.00;97927.27;1824431;78;22007;-69
2022/02/22 01:42:30;;;;;;;;;;;;;;;2.31;100.00;97935.17;1799780;80;20951;-69
2022/02/22 01:44:57;;;;;;;17.67;12.25;;;;;;;2.34;100.00;97944.75;1815543;78;20137;-70
2022/02/22 01:47:24;;;;;;;15.88;12.18;;;;;;;2.35;100.00;97942.41;1825233;78;20939;-69
2022/02/22 01:49:50;;;;;;;20.02;14.60;;;;;;;2.34;100.00;97946.61;1821004;77;20927;-70
2022/02/22 01:52:17;;;;;;;20.40;15.58;;;;;;;2.35;100.00;97950.84;1821054;77;21119;-71
2022/02/22 01:54:45;;;;;;;17.82;13.98;;;;;;;2.36;100.00;97951.94;1827396;78;21010;-70
2022/02/22 01:57:12;;;;;;;19.37;13.75;;;;;;;2.41;100.00;97951.75;1828043;78;20974;-71
2022/02/22 01:59:42;;;;;;;22.17;14.53;;;;;;;2.43;100.00;97955.77;1825203;78;21591;-73
2022/02/22 02:02:10;;;;;;;21.02;13.28;;;;;;;2.50;100.00;97946.31;1794701;78;21032;-71
2022/02/22 02:04:37;;;;;;;15.25;10.13;;;;;;;2.52;100.00;97963.60;1822263;78;21143;-70
2022/02/22 02:07:04;;;;;;;20.65;12.70;;;;;;;2.50;100.00;97960.88;1817994;78;21579;-70
2022/02/22 02:09:31;;;;;;;18.80;13.70;;;;;;;2.52;100.00;97964.92;1822353;78;20923;-71
2022/02/22 02:11:59;;;;;;;20.50;14.03;;;;;;;2.55;100.00;97965.77;1819575;77;20852;-70
2022/02/22 02:14:27;;;;;;;17.77;12.73;;;;;;;2.57;100.00;97968.16;1817614;78;20971;-70
2022/02/22 02:16:55;;;;;;;19.07;13.60;;;;;;;2.55;100.00;97964.97;1817233;79;21544;-69
2022/02/22 02:19:22;;;;;;;17.42;14.05;;;;;;;2.57;100.00;97961.53;1817200;77;20990;-69
2022/02/22 02:21:50;;;;;;;19.77;14.23;;;;;;;2.57;100.00;97967.66;1817775;78;21680;-70
2022/02/22 02:24:23;;;;;;;21.42;14.35;;;;;;;2.59;100.00;97971.38;1821701;78;21423;-69
2022/02/22 02:27:31;;;;;;;20.57;14.07;;;;;;;2.60;100.00;97965.05;1817932;78;21050;-70
2022/02/22 02:38:26;;;;;;;20.50;14.55;;;;;;;2.50;100.00;97983.39;1681425;84;21347;-66
2022/02/22 02:40:53;;;;;;;16.73;13.20;;;;;;;2.47;100.00;97994.48;1657174;85;20975;-66
2022/02/22 02:43:19;;;;;;;22.80;13.95;;;;;;;2.46;100.00;97987.59;1680483;85;20876;-66
2022/02/22 02:45:46;;;;;;;17.70;12.63;;;;;;;2.46;100.00;97987.59;1656130;85;21494;-67
2022/02/22 02:48:13;;;;;;;20.32;14.18;;;;;;;2.45;100.00;97999.20;1634542;85;21070;-67
2022/02/22 02:50:40;;;;;;;18.45;13.45;;;;;;;2.43;100.00;97990.20;1656211;85;20920;-65
2022/02/22 02:53:07;;;;;;;17.65;13.18;;;;;;;2.42;100.00;98004.45;1655850;85;20994;-67
2022/02/22 02:55:34;;;;;;;16.77;11.73;;;;;;;2.40;100.00;98011.86;1606893;86;21505;-66
2022/02/22 02:58:01;;;;;;;17.48;12.40;;;;;;;2.39;100.00;98012.89;1650482;86;21152;-66
2022/02/22 03:00:28;;;;;;;15.50;11.15;;;;;;;2.38;100.00;98016.59;1651213;86;21065;-65
2022/02/22 03:02:55;;;;;;;18.67;12.25;;;;;;;2.35;100.00;98023.66;1628608;87;21042;-66
2022/02/22 03:05:22;;;;;;;17.23;11.83;;;;;;;2.33;100.00;98019.95;1600270;88;20932;-66
2022/02/22 03:08:11;;;;;;;18.75;12.43;;;;;;;2.34;100.00;98026.04;1620723;88;21458;-67
2022/02/22 03:10:38;;;;;;;15.32;10.18;;;;;;;2.33;100.00;98026.56;1613641;88;21163;-70
2022/02/22 03:13:04;;;;;;;16.67;11.80;;;;;;;2.36;100.00;98022.11;1587732;89;21585;-70
2022/02/22 03:15:33;;;;;;;21.95;12.98;;;;;;;2.38;100.00;98031.65;1599897;87;21701;-70
2022/02/22 03:18:00;;;;;;;19.10;12.28;;;;;;;2.34;100.00;98026.04;1638828;86;21565;-68
2022/02/22 03:20:29;;;;;;;15.98;11.18;;;;;;;2.31;100.00;98026.00;1656929;86;21024;-69
2022/02/22 03:22:56;;;;;;;16.48;11.97;;;;;;;2.29;100.00;98020.66;1658541;86;26117;-70
2022/02/22 03:25:23;;;;;;;15.98;11.43;;;;;;;2.30;100.00;98025.72;1664596;86;21043;-70
2022/02/22 03:27:51;;;;;;;17.23;11.85;;;;;;;2.25;100.00;98031.42;1664602;86;21872;-69
2022/02/22 03:30:20;;;;;;;16.30;10.60;;;;;;;2.26;100.00;98034.37;1656988;86;20993;-69
2022/02/22 03:32:47;;;;;;;16.60;11.08;;;;;;;2.29;100.00;98036.54;1655440;86;21093;-71
2022/02/22 03:35:13;;;;;;;15.32;11.30;;;;;;;2.27;100.00;98039.94;1655264;86;21170;-68
2022/02/22 03:37:40;;;;;;;21.12;11.70;;;;;;;2.23;100.00;98039.63;1655279;86;20927;-68
2022/02/22 03:40:09;;;;;;;17.77;11.43;;;;;;;2.23;100.00;98046.73;1655840;86;21039;-71
2022/02/22 03:42:41;;;;;;;15.03;11.43;;;;;;;2.20;100.00;98053.31;1660504;86;20983;-68
2022/02/22 03:45:10;;;;;;;16.40;10.32;;;;;;;2.22;100.00;98056.53;1664483;86;21167;-70
2022/02/22 03:47:39;;;;;;;15.93;10.85;;;;;;;2.20;100.00;98051.19;1686809;83;21295;-69
2022/02/22 03:50:08;;;;;;;20.43;11.83;;;;;;;2.16;100.00;98056.16;1696202;83;20931;-69
2022/02/22 03:52:35;;;;;;;15.83;11.25;;;;;;;2.14;100.00;98058.23;1713501;83;21062;-71
2022/02/22 03:55:02;;;;;;;22.32;14.47;;;;;;;2.13;100.00;98065.87;1692584;83;21106;-70
2022/02/22 03:57:29;;;;;;;37.28;25.25;;;;;;;2.12;100.00;98063.75;1713970;83;20880;-71
2022/02/22 03:59:57;;;;;;;212.95;158.52;;;;;;;2.08;100.00;98065.28;1713757;83;20970;-70
2022/02/22 04:02:24;;;;;;;24.85;19.60;;;;;;;2.06;100.00;98061.27;1714266;82;20955;-70
2022/02/22 04:04:51;;;;;;;46.00;41.10;;;;;;;2.04;100.00;98069.43;1713430;83;20941;-71
2022/02/22 04:07:17;;;;;;;47.75;42.95;;;;;;;2.07;100.00;98069.48;1713656;82;21000;-70
2022/02/22 04:09:44;;;;;;;24.77;16.17;;;;;;;2.05;100.00;98069.70;1707210;83;20956;-70
2022/02/22 04:12:12;;;;;;;15.50;10.90;;;;;;;2.03;100.00;98072.30;1703100;83;21154;-69
2022/02/22 04:14:39;;;;;;;13.58;10.08;;;;;;;2.01;100.00;98069.08;1703166;84;25304;-69
2022/02/22 04:17:07;;;;;;;19.37;12.43;;;;;;;1.94;100.00;98077.17;1703455;84;20988;-71
2022/02/22 04:19:34;;;;;;;19.43;13.40;;;;;;;1.87;100.00;98074.64;1703248;83;21020;-69
2022/02/22 04:22:00;;;;;;;17.55;11.05;;;;;;;1.80;100.00;98067.35;1722225;82;21406;-69
2022/02/22 04:24:27;;;;;;;15.85;11.95;;;;;;;1.76;100.00;98074.66;1734019;82;21234;-68
2022/02/22 04:26:54;;;;;;;16.07;11.45;;;;;;;1.69;100.00;98078.25;1703380;81;21541;-70
2022/02/22 04:29:21;;;;;;;15.15;11.68;;;;;;;1.63;100.00;98075.20;1704136;84;21603;-72
2022/02/22 04:31:48;;;;;;;19.00;12.55;;;;;;;1.52;100.00;98076.03;1705307;84;21518;-70
2022/02/22 04:34:15;;;;;;;20.08;13.88;;;;;;;1.41;100.00;98072.86;1704819;84;21051;-71
2022/02/22 04:36:42;;;;;;;20.95;15.80;;;;;;;1.28;100.00;98077.87;1704205;84;22018;-70
2022/02/22 04:39:10;;;;;;;17.42;11.25;;;;;;;1.17;100.00;98080.77;1704257;84;21483;-69
2022/02/22 04:41:38;;;;;;;15.90;11.15;;;;;;;1.09;100.00;98089.05;1703473;84;21438;-70
2022/02/22 04:44:06;;;;;;;14.78;10.80;;;;;;;1.02;100.00;98094.95;1703219;84;21132;-70
2022/02/22 04:46:33;;;;;;;15.55;12.07;;;;;;;0.90;100.00;98099.41;1704276;84;20945;-70
2022/02/22 04:49:00;;;;;;;16.57;11.57;;;;;;;0.77;100.00;98097.78;1703242;84;21151;-71
2022/02/22 04:51:26;;;;;;;14.55;10.72;;;;;;;0.68;100.00;98093.84;1702947;84;21462;-71
2022/02/22 04:53:53;;;;;;;15.45;11.08;;;;;;;0.63;100.00;98096.63;1703071;84;20959;-69
2022/02/22 04:56:20;;;;;;;17.85;13.00;;;;;;;0.57;100.00;98107.31;1703614;84;21489;-69
2022/02/22 04:58:47;;;;;;;19.52;12.28;;;;;;;0.55;100.00;98098.28;1704386;84;21015;-70
2022/02/22 05:01:14;;;;;;;19.40;12.90;;;;;;;0.47;100.00;98103.09;1703532;84;21234;-70
2022/02/22 05:03:41;;;;;;;15.80;12.40;;;;;;;0.33;100.00;98107.72;1703653;84;21014;-72
2022/02/22 05:06:07;;;;;;;17.55;12.43;;;;;;;0.22;100.00;98111.90;1703606;84;21498;-70
2022/02/22 05:08:34;;;;;;;19.25;13.55;;;;;;;0.14;100.00;98110.89;1703100;84;21533;-71
2022/02/22 05:11:00;;;;;;;18.27;12.60;;;;;;;0.02;100.00;98112.14;1724123;83;21881;-71
2022/02/22 05:13:30;;;;;;;24.23;15.37;;;;;;;-0.06;100.00;98113.25;1725394;83;21021;-70
2022/02/22 05:15:58;;;;;;;24.35;15.85;;;;;;;-0.11;100.00;98125.49;1724158;83;20994;-68
2022/02/22 05:18:26;;;;;;;26.73;17.00;;;;;;;-0.12;100.00;98123.86;1725626;83;21538;-68
2022/02/22 05:20:55;;;;;;;29.00;18.95;;;;;;;-0.10;100.00;98127.92;1724615;83;20961;-69
2022/02/22 05:23:27;;;;;;;19.65;14.28;;;;;;;-0.10;100.00;98128.41;1725422;83;21112;-68
2022/02/22 05:25:54;;;;;;;356.95;184.10;;;;;;;-0.14;100.00;98128.58;1723975;83;21109;-71
2022/02/22 05:28:23;;;;;;;930.18;583.75;;;;;;;-0.21;100.00;98136.55;1725054;83;21083;-74
2022/02/22 05:30:50;;;;;;;;;;;;;;;-0.19;100.00;98142.41;1727760;83;20889;-71
2022/02/22 05:33:17;;;;;;;206.90;141.10;;;;;;;-0.20;100.00;98142.63;1723742;83;20117;-71
2022/02/22 05:35:47;;;;;;;44.20;36.93;;;;;;;-0.19;100.00;98146.89;1724440;83;21062;-72
2022/02/22 05:38:15;;;;;;;33.55;22.40;;;;;;;-0.16;100.00;98148.56;1724114;83;21187;-72
2022/02/22 05:40:42;;;;;;;165.35;115.37;;;;;;;-0.14;100.00;98151.00;1725280;82;20965;-72
2022/02/22 05:43:09;;;;;;;41.98;30.75;;;;;;;-0.16;100.00;98154.36;1699523;82;20965;-66
2022/02/22 05:45:36;;;;;;;32.67;21.10;;;;;;;-0.13;100.00;98153.39;1702744;83;21007;-73
2022/02/22 05:48:03;;;;;;;43.02;19.98;;;;;;;-0.14;100.00;98152.31;1730323;82;21355;-65
2022/02/22 05:50:31;;;;;;;39.05;21.20;;;;;;;0.06;100.00;98153.42;1699591;83;21145;-68
2022/02/22 05:52:58;;;;;;;50.98;27.15;;;;;;;0.36;100.00;98156.10;1724929;83;21035;-68
2022/02/22 05:55:26;;;;;;;44.20;24.47;;;;;;;0.68;100.00;98166.47;1724747;83;21680;-73
2022/02/22 05:57:53;;;;;;;47.13;25.05;;;;;;;1.02;100.00;98164.98;1724016;82;21514;-72
2022/02/22 06:00:21;;;;;;;;;;;;;;;1.32;100.00;98170.73;1726070;82;21026;-72
2022/02/22 06:02:48;;;;;;;62.35;34.73;;;;;;;1.51;100.00;98177.53;1727929;82;21150;-70
2022/02/22 06:05:15;;;;;;;61.88;33.35;;;;;;;1.71;100.00;98178.52;1731440;82;21015;-73
2022/02/22 06:07:42;;;;;;;69.70;33.80;;;;;;;1.87;100.00;98176.52;1701565;83;21036;-71
2022/02/22 06:10:14;;;;;;;59.38;32.70;;;;;;;2.00;100.00;98179.44;1723556;82;21573;-73
2022/02/22 06:12:53;;;;;;;49.23;30.48;;;;;;;2.14;100.00;98184.77;1693260;84;21135;-71
2022/02/22 06:15:14;;;;;;;45.25;27.35;;;;;;;2.25;100.00;98191.60;1692961;84;21172;-71
2022/02/22 06:17:44;;;;;;;42.38;24.87;;;;;;;2.33;100.00;98184.64;1694328;84;20988;-68
2022/02/22 06:20:13;;;;;;;31.73;20.23;;;;;;;2.47;100.00;98193.11;1695337;84;21509;-71
2022/02/22 06:22:40;;;;;;;37.95;23.05;;;;;;;2.57;100.00;98192.81;1695251;84;21016;-67
2022/02/22 06:25:09;;;;;;;31.65;20.02;;;;;;;2.66;100.00;98193.75;1695465;84;21028;-70
2022/02/22 06:27:51;;;;;;;29.42;17.35;;;;;;;2.78;100.00;98198.49;1693658;84;21179;-70
2022/02/22 06:30:20;;;;;;;24.63;12.93;;;;;;;3.01;100.00;98204.20;1692697;84;21590;-69
2022/02/22 06:32:47;;;;;;;25.43;13.43;;;;;;;3.12;100.00;98207.34;1695233;84;20975;-72
2022/02/22 06:35:17;;;;;;;22.75;13.32;;;;;;;3.35;100.00;98210.90;1693094;84;22246;-70
2022/02/22 06:37:45;;;;;;;20.48;11.70;;;;;;;3.46;100.00;98213.22;1701067;83;21039;-69
2022/02/22 06:40:12;;;;;;;28.70;16.00;;;;;;;3.46;100.00;98213.22;1680535;84;21146;-71
2022/02/22 06:42:40;;;;;;;21.70;13.38;;;;;;;3.60;100.00;98221.12;1675275;85;21024;-71
2022/02/22 06:45:10;;;;;;;13.53;9.70;;;;;;;3.68;100.00;98220.74;1694411;84;21094;-68
2022/02/22 06:47:42;;;;;;;22.10;10.82;;;;;;;3.67;100.00;98226.28;1694051;84;21032;-70
2022/02/22 06:50:12;;;;;;;19.73;10.80;;;;;;;3.89;100.00;98232.46;1694278;84;21113;-71
2022/02/22 06:52:39;;;;;;;10.55;7.40;;;;;;;4.14;100.00;98236.04;1673468;84;21144;-69
2022/02/22 06:55:10;;;;;;;12.00;8.58;;;;;;;4.16;100.00;98235.24;1679020;85;21140;-71
2022/02/22 06:57:40;;;;;;;13.68;7.90;;;;;;;4.39;100.00;98236.91;1690284;84;20909;-71
2022/02/22 07:00:09;;;;;;;;;;;;;;;4.59;100.00;98244.33;1686869;85;21015;-70
2022/02/22 07:02:38;;;;;;;8.98;6.70;;;;;;;4.87;100.00;98243.86;1683449;84;20382;-72
2022/02/22 07:05:07;;;;;;;8.73;6.53;;;;;;;4.83;100.00;98241.44;1695030;83;25201;-71
2022/02/22 07:07:36;;;;;;;7.00;5.97;;;;;;;4.63;100.00;98242.80;1710267;83;21095;-69
2022/02/22 07:10:06;;;;;;;13.03;7.50;;;;;;;4.64;100.00;98256.35;1674869;84;21116;-71
2022/02/22 07:12:36;;;;;;;13.90;8.05;;;;;;;4.76;100.00;98254.91;1673987;83;21021;-72
2022/02/22 07:15:05;;;;;;;11.25;7.50;;;;;;;5.14;100.00;98247.87;1668983;86;21592;-71
2022/02/22 07:17:32;;;;;;;10.63;7.80;;;;;;;5.37;100.00;98256.11;1684350;84;21142;-71
2022/02/22 07:20:00;;;;;;;11.33;7.35;;;;;;;5.69;100.00;98260.12;1683897;83;21032;-71
2022/02/22 07:22:26;;;;;;;10.30;6.62;;;;;;;5.92;100.00;98270.95;1701906;83;20925;-70
2022/02/22 07:24:53;;;;;;;8.60;6.12;;;;;;;5.81;100.00;98273.27;1712491;83;20989;-71
2022/02/22 07:27:21;;;;;;;11.63;7.25;;;;;;;5.93;100.00;98278.44;1708984;83;20913;-70
2022/02/22 07:29:48;;;;;;;12.35;8.30;;;;;;;5.94;100.00;98275.53;1674450;84;21210;-71
2022/02/22 07:32:17;;;;;;;9.65;7.20;;;;;;;6.44;100.00;98277.45;1695751;84;20925;-69
2022/02/22 07:34:43;;;;;;;9.75;6.35;;;;;;;6.83;100.00;98277.13;1696223;84;20984;-70
2022/02/22 07:37:10;;;;;;;9.95;6.42;;;;;;;7.04;97.07;98279.35;1695995;84;21470;-72
2022/02/22 07:39:38;;;;;;;11.48;5.95;;;;;;;6.72;96.89;98271.49;1695934;84;20989;-70
2022/02/22 07:42:06;;;;;;;9.80;7.25;;;;;;;6.36;96.42;98269.42;1691973;83;21005;-70
2022/02/22 07:44:33;;;;;;;10.80;7.00;;;;;;;6.28;99.51;98269.91;1713192;83;20996;-73
2022/02/22 07:47:01;;;;;;;12.25;7.12;;;;;;;6.18;94.10;98266.65;1713462;83;20968;-71
2022/02/22 07:49:29;;;;;;;11.38;7.53;;;;;;;6.38;94.44;98276.63;1712669;83;20891;-69
2022/02/22 07:51:56;;;;;;;12.50;7.90;;;;;;;6.51;93.22;98267.37;1707553;83;21016;-70
2022/02/22 07:54:23;;;;;;;7.90;6.40;;;;;;;6.96;91.80;98274.53;1694888;84;21486;-71
2022/02/22 07:56:50;;;;;;;9.00;5.92;;;;;;;7.08;83.68;98279.91;1696617;83;21094;-71
2022/02/22 07:59:17;;;;;;;7.33;5.37;;;;;;;7.01;83.64;98276.67;1697880;83;21075;-71
2022/02/22 08:01:43;;;;;;;10.35;5.30;;;;;;;7.11;80.05;98277.78;1695405;84;20944;-69
2022/02/22 08:04:10;;;;;;;8.55;5.58;;;;;;;7.53;76.80;98275.47;1703357;83;20881;-70
2022/02/22 08:06:37;;;;;;;8.28;5.90;;;;;;;7.60;75.15;98274.69;1717178;83;21164;-70
2022/02/22 08:09:03;;;;;;;9.20;5.28;;;;;;;7.82;71.53;98274.44;1712931;83;21136;-69
2022/02/22 08:11:32;;;;;;;10.05;4.40;;;;;;;7.98;65.08;98280.57;1694652;83;21126;-71
2022/02/22 08:14:00;;;;;;;6.55;5.25;;;;;;;8.20;65.58;98275.73;1688218;84;21546;-69
2022/02/22 08:16:27;;;;;;;7.92;4.78;;;;;;;8.22;63.38;98276.28;1663737;85;20958;-70
2022/02/22 08:18:55;;;;;;;6.62;4.62;;;;;;;8.19;62.14;98273.36;1669833;85;21161;-70
2022/02/22 08:21:25;;;;;;;7.17;4.00;;;;;;;7.78;63.06;98276.83;1668574;85;21031;-68
2022/02/22 08:23:52;;;;;;;6.22;4.78;;;;;;;7.74;61.79;98271.73;1671337;85;21421;-68
2022/02/22 08:26:19;;;;;;;6.35;4.70;;;;;;;7.99;64.15;98273.63;1671338;85;21518;-68
2022/02/22 08:28:46;;;;;;;8.00;4.92;;;;;;;8.13;60.00;98281.89;1666223;84;21008;-69
2022/02/22 08:31:15;;;;;;;8.33;4.65;;;;;;;7.99;60.42;98275.52;1667894;85;25912;-71
2022/02/22 08:33:42;;;;;;;7.90;5.00;;;;;;;7.78;61.19;98275.48;1671861;85;21008;-67
2022/02/22 08:36:11;;;;;;;9.00;4.87;;;;;;;7.97;55.79;98274.43;1666472;86;20925;-73
2022/02/22 08:38:39;;;;;;;9.10;5.45;;;;;;;8.03;59.82;98272.01;1683350;85;21088;-70
2022/02/22 08:41:06;;;;;;;9.28;4.90;;;;;;;7.99;61.18;98275.52;1639669;86;21085;-68
2022/02/22 08:43:39;;;;;;;8.03;5.05;;;;;;;7.96;62.61;98272.81;1639074;87;21166;-69
2022/02/22 08:46:02;;;;;;;8.20;5.10;;;;;;;8.03;62.62;98268.54;1621748;88;21004;-68
2022/02/22 08:48:29;;;;;;;7.47;5.00;;;;;;;8.07;61.60;98264.27;1638959;87;21139;-69
2022/02/22 08:50:57;;;;;;;8.68;5.97;;;;;;;8.08;61.96;98267.99;1676301;84;21092;-70
2022/02/22 08:53:24;;;;;;;9.68;5.85;;;;;;;8.19;62.93;98274.69;1645215;85;21604;-68
2022/02/22 08:55:54;;;;;;;7.00;4.58;;;;;;;8.40;62.62;98277.61;1631338;87;21499;-71
2022/02/22 08:58:21;;;;;;;7.58;4.80;;;;;;;8.42;61.03;98271.45;1632284;87;21038;-68
2022/02/22 09:00:48;;;;;;;6.42;4.87;;;;;;;8.14;57.47;98276.29;1663135;86;21037;-69
2022/02/22 09:03:15;;;;;;;10.03;5.28;;;;;;;8.12;58.29;98285.64;1668340;86;21067;-67
2022/02/22 09:05:42;;;;;;;7.15;4.28;;;;;;;8.07;59.63;98282.98;1668303;86;21066;-70
2022/02/22 09:08:09;;;;;;;6.72;4.80;;;;;;;8.47;58.49;98289.37;1668164;86;21234;-69
2022/02/22 09:10:36;;;;;;;9.08;5.40;;;;;;;8.66;57.35;98279.69;1673440;84;20952;-68
2022/02/22 09:13:03;;;;;;;5.15;3.83;;;;;;;8.95;56.53;98281.74;1695730;84;20981;-69
2022/02/22 09:15:32;;;;;;;6.97;3.85;;;;;;;9.07;55.33;98280.09;1695829;84;20978;-67
2022/02/22 09:18:00;;;;;;;9.88;5.35;;;;;;;8.80;55.41;98284.73;1696018;84;20927;-72
2022/02/22 09:20:27;;;;;;;7.05;4.17;;;;;;;8.87;55.40;98280.95;1688495;84;21150;-68
2022/02/22 09:22:57;;;;;;;8.10;4.50;;;;;;;9.07;56.31;98280.09;1705744;83;21017;-68
2022/02/22 09:25:25;;;;;;;5.67;4.12;;;;;;;8.98;55.41;98291.35;1667296;86;20956;-70
2022/02/22 09:27:52;;;;;;;6.87;3.90;;;;;;;8.91;57.49;98290.84;1660268;85;21027;-69
2022/02/22 09:30:20;;;;;;;8.25;3.30;;;;;;;8.84;53.49;98293.00;1668309;86;20950;-71
2022/02/22 09:33:00;;;;;;;4.97;4.00;;;;;;;9.09;54.04;98284.61;1668560;86;21845;-70
2022/02/22 09:35:27;;;;;;;5.37;3.65;;;;;;;9.16;54.76;98296.65;1664510;84;21007;-69
2022/02/22 09:37:55;;;;;;;5.33;2.92;;;;;;;9.40;52.66;98306.14;1664283;86;21090;-68
2022/02/22 09:40:23;;;;;;;5.58;3.12;;;;;;;9.08;51.77;98299.88;1664665;86;21202;-69
2022/02/22 09:42:49;;;;;;;7.75;3.37;;;;;;;8.85;50.40;98309.88;1664702;86;21062;-72
2022/02/22 09:45:16;;;;;;;3.33;2.17;;;;;;;8.98;51.16;98306.07;1664415;86;21167;-70
2022/02/22 09:47:44;;;;;;;5.78;3.25;;;;;;;8.57;50.17;98311.56;1664614;86;21057;-69
2022/02/22 09:50:11;;;;;;;3.70;3.37;;;;;;;9.03;49.67;98284.38;1664433;86;21032;-67
2022/02/22 09:52:38;;;;;;;6.50;3.27;;;;;;;9.09;49.52;98318.07;1664497;86;21058;-69
2022/02/22 09:55:08;;;;;;;2.92;2.47;;;;;;;9.17;48.94;98298.78;1667076;84;21025;-68
2022/02/22 09:57:34;;;;;;;5.12;3.40;;;;;;;9.05;48.24;98304.98;1667133;86;22105;-69
2022/02/22 10:00:04;;;;;;;5.33;3.27;;;;;;;9.33;48.35;98306.19;1654473;86;21049;-71
2022/02/22 10:02:38;;;;;;;6.22;4.17;;;;;;;9.60;48.24;98301.23;1680895;85;21051;-69
2022/02/22 10:05:19;;;;;;;3.65;3.00;;;;;;;9.88;47.60;98301.56;1662344;86;21492;-69
2022/02/22 10:07:58;;;;;;;3.90;3.08;;;;;;;9.98;46.26;98301.48;1662620;86;21005;-69
2022/02/22 10:10:41;;;;;;;6.87;3.60;;;;;;;9.90;46.87;98298.07;1662215;85;21172;-69
2022/02/22 10:13:12;;;;;;;3.20;2.55;;;;;;;9.98;46.99;98301.48;1661713;85;21128;-68
2022/02/22 10:15:41;;;;;;;7.30;3.17;;;;;;;9.81;45.67;98289.81;1637552;86;21051;-69
2022/02/22 10:18:08;;;;;;;;;;;;;;;9.79;46.02;98300.55;1664757;84;21551;-69
2022/02/22 10:20:36;;;;;;;7.15;3.27;;;;;;;9.71;45.79;98309.20;1662463;86;20124;-68
2022/02/22 10:23:04;;;;;;;4.37;2.90;;;;;;;9.82;46.48;98287.41;1683505;85;21181;-68
2022/02/22 10:25:31;;;;;;;14.70;3.92;;;;;;;9.25;47.25;98293.39;1685241;85;21019;-68
2022/02/22 10:27:59;;;;;;;20.15;10.60;;;;;;;9.03;47.36;98289.20;1684390;84;21087;-70
2022/02/22 10:30:43;;;;;;;6.90;5.12;;;;;;;9.28;47.18;98291.48;1663366;85;21096;-68
2022/02/22 10:33:22;;;;;;;8.53;4.00;;;;;;;9.44;47.44;98297.03;1662667;86;21527;-69
2022/02/22 10:35:52;;;;;;;168.32;92.53;;;;;;;9.52;47.35;98297.78;1662356;86;21148;-69
2022/02/22 10:38:26;;;;;;;35.95;19.62;;;;;;;9.77;48.57;98308.06;1675538;85;21471;-70
2022/02/22 10:41:01;;;;;;;10.03;3.62;;;;;;;9.59;48.77;98307.65;1685214;85;21108;-69
2022/02/22 10:43:32;;;;;;;7.97;5.58;;;;;;;9.63;47.98;98294.52;1685458;85;20949;-68
2022/02/22 10:46:03;;;;;;;7.58;4.33;;;;;;;9.74;49.37;98304.06;1685493;84;21558;-69
2022/02/22 10:48:38;;;;;;;8.55;3.90;;;;;;;9.97;48.99;98303.92;1685612;85;21930;-68
2022/02/22 10:51:11;;;;;;;5.90;3.27;;;;;;;9.96;47.86;98295.59;1685303;84;20978;-68
2022/02/22 10:53:42;;;;;;;8.68;4.80;;;;;;;9.42;48.12;98277.76;1685526;85;21032;-69
2022/02/22 10:56:12;;;;;;;6.80;4.20;;;;;;;9.35;47.59;98293.33;1685566;85;21552;-68
2022/02/22 10:58:45;;;;;;;7.20;4.35;;;;;;;9.68;48.35;98303.03;1685298;84;21880;-70
2022/02/22 11:01:19;;;;;;;8.63;3.60;;;;;;;9.77;47.17;98297.35;1685578;85;21508;-69
2022/02/22 11:03:45;;;;;;;7.20;3.35;;;;;;;9.62;48.48;98296.37;1685228;84;21031;-69
2022/02/22 11:06:14;;;;;;;5.90;3.37;;;;;;;9.79;48.37;98277.23;1658809;85;20950;-69
2022/02/22 11:08:46;;;;;;;5.37;3.37;;;;;;;9.73;48.27;98297.12;1685359;84;21049;-71
2022/02/22 11:11:20;;;;;;;204.00;95.72;;;;;;;9.64;48.59;98306.82;1685505;84;21101;-69
2022/02/22 11:14:03;;;;;;;6.20;3.95;;;;;;;9.74;49.14;98290.67;1685522;85;22418;-69
2022/02/22 11:16:46;;;;;;;5.42;3.85;;;;;;;9.88;49.07;98306.38;1683884;85;21576;-71
2022/02/22 11:19:26;;;;;;;7.65;3.98;;;;;;;9.64;48.88;98302.25;1650008;85;20996;-71
2022/02/22 11:21:56;;;;;;;6.90;4.40;;;;;;;9.43;49.82;98302.94;1679518;85;21529;-69
2022/02/22 11:24:23;;;;;;;7.08;3.90;;;;;;;9.61;49.25;98280.05;1677694;85;21064;-67
2022/02/22 11:27:00;;;;;;;3.10;2.60;;;;;;;9.79;49.60;98295.98;1681118;85;21829;-72
2022/02/22 11:29:29;;;;;;;6.47;4.35;;;;;;;9.53;49.45;98280.64;1666581;85;21029;-70
2022/02/22 11:32:05;;;;;;;5.25;3.55;;;;;;;9.68;50.45;98293.14;1675094;85;21095;-69
2022/02/22 11:34:38;;;;;;;4.67;2.98;;;;;;;9.88;50.41;98298.34;1673099;84;21091;-72
2022/02/22 11:37:13;;;;;;;9.00;5.33;;;;;;;9.56;49.58;98280.63;1676970;85;21138;-69
2022/02/22 11:39:51;;;;;;;5.15;3.72;;;;;;;9.95;49.05;98283.84;1675295;85;21197;-69
2022/02/22 11:42:23;;;;;;;4.75;3.17;;;;;;;9.89;49.88;98297.80;1670366;85;21585;-69